Time;durP1;ratioP1;P1;durP2;ratioP2;P2;SDS_P1;SDS_P2;PMS_P1;PMS_P2;Temp;Humidity;BMP_temperature;BMP_pressure;BME280_temperature;BME280_humidity;BME280_pressure;Samples;Min_cycle;Max_cycle;Signal;HPM_P1;HPM_P2
2023/05/25 00:01:08;;;;;;;8.40;4.47;;;;;;;;;;5064205;28;20751;-52
2023/05/25 00:03:34;;;;;;;8.10;4.15;;;;;;;;;;5079312;28;20329;-52
2023/05/25 00:06:01;;;;;;;8.68;4.30;;;;;;;;;;5074279;28;20231;-52
2023/05/25 00:08:27;;;;;;;10.18;4.97;;;;;;;;;;5082920;28;20338;-52
2023/05/25 00:10:54;;;;;;;7.97;5.13;;;;;;;;;;5061784;28;20224;-51
2023/05/25 00:13:20;;;;;;;7.22;4.32;;;;;;;;;;5074690;28;20231;-51
2023/05/25 00:15:47;;;;;;;7.10;4.97;;;;;;;;;;5076575;28;20249;-51
2023/05/25 00:18:15;;;;;;;6.13;4.03;;;;;;;;;;5075705;28;20322;-52
2023/05/25 00:20:43;;;;;;;7.45;5.18;;;;;;;;;;5080197;28;20238;-52
2023/05/25 00:23:09;;;;;;;8.60;4.38;;;;;;;;;;5072622;28;20238;-53
2023/05/25 00:25:36;;;;;;;9.77;5.07;;;;;;;;;;5084501;28;20266;-51
2023/05/25 00:28:03;;;;;;;6.65;4.55;;;;;;;;;;5072212;28;20317;-55
2023/05/25 00:30:29;;;;;;;7.03;5.40;;;;;;;;;;5082896;28;20238;-51
2023/05/25 00:32:56;;;;;;;8.70;5.20;;;;;;;;;;5075065;28;20269;-51
2023/05/25 00:35:23;;;;;;;8.55;4.85;;;;;;;;;;5082179;28;20305;-51
2023/05/25 00:37:50;;;;;;;7.00;4.63;;;;;;;;;;5071710;28;20661;-52
2023/05/25 00:40:17;;;;;;;6.03;4.85;;;;;;;;;;5079337;28;20230;-50
2023/05/25 00:42:43;;;;;;;8.95;5.03;;;;;;;;;;5075780;28;20325;-52
2023/05/25 00:45:10;;;;;;;5.65;4.88;;;;;;;;;;5065242;28;20310;-50
2023/05/25 00:47:37;;;;;;;10.95;5.45;;;;;;;;;;5080981;28;20227;-52
2023/05/25 00:50:06;;;;;;;5.28;4.35;;;;;;;;;;5076231;28;20257;-54
2023/05/25 00:52:34;;;;;;;9.65;4.68;;;;;;;;;;5078335;28;20238;-51
2023/05/25 00:55:02;;;;;;;5.32;4.65;;;;;;;;;;5077754;28;20231;-51
2023/05/25 00:57:32;;;;;;;5.85;5.07;;;;;;;;;;5075318;28;20240;-52
2023/05/25 01:00:00;;;;;;;5.57;5.07;;;;;;;;;;5081726;28;20234;-51
2023/05/25 01:02:28;;;;;;;8.32;4.97;;;;;;;;;;5073586;28;20295;-51
2023/05/25 01:04:58;;;;;;;8.25;5.25;;;;;;;;;;5084123;28;20782;-51
2023/05/25 01:07:26;;;;;;;9.38;5.32;;;;;;;;;;5078788;28;20238;-51
2023/05/25 01:09:58;;;;;;;7.50;4.72;;;;;;;;;;5085041;28;20292;-52
2023/05/25 01:12:26;;;;;;;8.68;4.72;;;;;;;;;;5079269;28;20309;-52
2023/05/25 01:14:53;;;;;;;8.35;4.63;;;;;;;;;;5078830;28;20261;-51
2023/05/25 01:17:20;;;;;;;7.85;4.55;;;;;;;;;;5082614;28;20257;-52
2023/05/25 01:19:47;;;;;;;6.65;5.30;;;;;;;;;;5079274;28;20231;-52
2023/05/25 01:22:18;;;;;;;8.02;5.43;;;;;;;;;;5076362;28;20322;-52
2023/05/25 01:24:47;;;;;;;7.20;5.18;;;;;;;;;;5073763;28;20250;-50
2023/05/25 01:27:15;;;;;;;8.23;4.93;;;;;;;;;;5081707;28;20571;-52
2023/05/25 01:29:45;;;;;;;9.13;4.90;;;;;;;;;;5076210;28;20243;-50
2023/05/25 01:32:12;;;;;;;6.82;4.97;;;;;;;;;;5078449;28;20285;-50
2023/05/25 01:34:39;;;;;;;7.10;4.97;;;;;;;;;;5080034;28;20234;-50
2023/05/25 01:37:06;;;;;;;6.57;4.82;;;;;;;;;;5084182;28;20981;-51
2023/05/25 01:39:34;;;;;;;7.30;5.00;;;;;;;;;;5084479;28;20240;-51
2023/05/25 01:42:01;;;;;;;6.75;4.80;;;;;;;;;;5084631;28;20265;-52
2023/05/25 01:44:28;;;;;;;7.93;5.10;;;;;;;;;;5080451;28;20230;-51
2023/05/25 01:46:58;;;;;;;8.32;4.75;;;;;;;;;;5086387;28;20231;-50
2023/05/25 01:49:26;;;;;;;8.55;5.18;;;;;;;;;;5085225;28;20309;-50
2023/05/25 01:52:00;;;;;;;7.20;5.65;;;;;;;;;;5077720;28;20249;-52
2023/05/25 01:54:30;;;;;;;7.40;5.00;;;;;;;;;;5080081;28;20234;-52
2023/05/25 01:57:00;;;;;;;6.63;4.73;;;;;;;;;;5085271;28;20834;-51
2023/05/25 01:59:27;;;;;;;6.53;5.00;;;;;;;;;;5085060;28;20309;-52
2023/05/25 02:01:54;;;;;;;9.98;4.57;;;;;;;;;;5084544;28;20337;-52
2023/05/25 02:04:21;;;;;;;6.57;5.30;;;;;;;;;;5082421;28;20222;-52
2023/05/25 02:06:48;;;;;;;8.10;4.90;;;;;;;;;;5083057;28;20241;-53
2023/05/25 02:09:14;;;;;;;7.93;5.00;;;;;;;;;;5081689;28;20250;-51
2023/05/25 02:11:41;;;;;;;5.15;4.60;;;;;;;;;;5074579;28;20231;-53
2023/05/25 02:14:09;;;;;;;4.53;4.10;;;;;;;;;;5073630;28;20313;-52
2023/05/25 02:16:36;;;;;;;7.03;4.82;;;;;;;;;;5072943;28;20922;-53
2023/05/25 02:19:02;;;;;;;7.05;5.32;;;;;;;;;;5074200;28;20237;-51
2023/05/25 02:21:28;;;;;;;7.35;5.03;;;;;;;;;;5076946;28;20684;-51
2023/05/25 02:23:56;;;;;;;5.93;4.70;;;;;;;;;;5081648;28;20254;-51
2023/05/25 02:26:23;;;;;;;9.17;5.13;;;;;;;;;;5084522;28;20294;-51
2023/05/25 02:28:51;;;;;;;5.67;4.80;;;;;;;;;;5075498;28;20796;-51
2023/05/25 02:31:19;;;;;;;5.93;5.33;;;;;;;;;;5067158;28;20234;-53
2023/05/25 02:33:45;;;;;;;6.67;4.83;;;;;;;;;;5080634;28;20262;-52
2023/05/25 02:36:11;;;;;;;9.27;5.07;;;;;;;;;;5083874;28;20238;-52
2023/05/25 02:38:38;;;;;;;11.13;5.30;;;;;;;;;;5068032;28;20341;-51
2023/05/25 02:41:04;;;;;;;5.97;4.23;;;;;;;;;;5084286;28;20233;-53
2023/05/25 02:43:31;;;;;;;5.93;5.03;;;;;;;;;;5075009;28;20768;-52
2023/05/25 02:45:57;;;;;;;7.50;4.73;;;;;;;;;;5068059;28;20250;-50
2023/05/25 02:48:25;;;;;;;6.53;5.10;;;;;;;;;;5082381;28;20230;-52
2023/05/25 02:50:51;;;;;;;8.53;5.07;;;;;;;;;;5083266;28;20238;-53
2023/05/25 02:53:18;;;;;;;9.70;5.87;;;;;;;;;;5070041;28;20226;-52
2023/05/25 02:55:44;;;;;;;7.07;5.63;;;;;;;;;;5081785;28;20238;-52
2023/05/25 02:58:11;;;;;;;8.83;5.17;;;;;;;;;;5085099;28;20609;-50
2023/05/25 03:00:38;;;;;;;6.93;5.93;;;;;;;;;;5085793;28;20258;-51
2023/05/25 03:03:04;;;;;;;7.27;4.60;;;;;;;;;;5085644;28;20242;-53
2023/05/25 03:05:34;;;;;;;8.13;5.80;;;;;;;;;;5087995;28;20737;-53
2023/05/25 03:08:00;;;;;;;7.73;6.00;;;;;;;;;;5082258;28;20305;-53
2023/05/25 03:10:27;;;;;;;6.00;5.27;;;;;;;;;;5084041;28;20309;-52
2023/05/25 03:12:53;;;;;;;6.57;5.60;;;;;;;;;;5085307;28;20230;-51
2023/05/25 03:15:19;;;;;;;7.20;5.33;;;;;;;;;;5085302;28;20235;-51
2023/05/25 03:17:46;;;;;;;6.90;6.17;;;;;;;;;;5082580;28;20284;-50
2023/05/25 03:20:14;;;;;;;9.50;5.43;;;;;;;;;;5084438;28;20314;-51
2023/05/25 03:22:42;;;;;;;6.07;5.37;;;;;;;;;;5079356;28;20292;-51
2023/05/25 03:25:11;;;;;;;12.97;6.47;;;;;;;;;;5085837;28;20614;-50
2023/05/25 03:27:37;;;;;;;6.57;5.80;;;;;;;;;;5086425;28;20227;-51
2023/05/25 03:30:04;;;;;;;6.50;5.40;;;;;;;;;;5087109;28;20242;-54
2023/05/25 03:32:31;;;;;;;7.83;5.17;;;;;;;;;;5086586;28;20268;-52
2023/05/25 03:34:57;;;;;;;8.97;6.53;;;;;;;;;;5078539;28;20752;-52
2023/05/25 03:37:23;;;;;;;11.00;7.03;;;;;;;;;;5086962;28;20242;-53
2023/05/25 03:39:51;;;;;;;7.97;5.97;;;;;;;;;;5085287;28;20241;-53
2023/05/25 03:42:17;;;;;;;9.73;6.80;;;;;;;;;;5078743;28;20231;-53
2023/05/25 03:44:44;;;;;;;8.40;6.40;;;;;;;;;;5080635;28;20242;-53
2023/05/25 03:47:11;;;;;;;8.13;6.27;;;;;;;;;;5087661;28;20235;-51
2023/05/25 03:49:37;;;;;;;7.33;6.60;;;;;;;;;;5086853;28;20631;-51
2023/05/25 03:52:05;;;;;;;8.97;6.43;;;;;;;;;;5084067;28;20253;-53
2023/05/25 03:54:31;;;;;;;11.83;7.10;;;;;;;;;;5085009;28;20242;-51
2023/05/25 03:56:59;;;;;;;10.33;6.30;;;;;;;;;;5083704;28;20234;-52
2023/05/25 03:59:25;;;;;;;8.93;6.53;;;;;;;;;;5084021;28;20250;-52
2023/05/25 04:01:52;;;;;;;8.77;6.03;;;;;;;;;;5080953;28;20230;-52
2023/05/25 04:04:18;;;;;;;9.90;5.90;;;;;;;;;;5083156;28;20227;-51
2023/05/25 04:06:47;;;;;;;6.20;5.23;;;;;;;;;;5079805;28;20322;-52
2023/05/25 04:09:14;;;;;;;9.57;7.07;;;;;;;;;;5079305;28;20659;-50
2023/05/25 04:11:40;;;;;;;9.17;6.00;;;;;;;;;;5079817;28;20230;-50
2023/05/25 04:14:08;;;;;;;6.87;6.13;;;;;;;;;;5076994;28;20230;-51
2023/05/25 04:16:34;;;;;;;12.40;7.13;;;;;;;;;;5082941;28;20314;-53
2023/05/25 04:19:00;;;;;;;9.80;7.13;;;;;;;;;;5079129;28;20246;-52
2023/05/25 04:21:27;;;;;;;11.07;6.90;;;;;;;;;;5077179;28;20231;-51
2023/05/25 04:23:53;;;;;;;8.77;7.03;;;;;;;;;;5081294;28;20248;-52
2023/05/25 04:26:20;;;;;;;10.63;6.70;;;;;;;;;;5079599;28;20229;-51
2023/05/25 04:28:47;;;;;;;8.20;6.73;;;;;;;;;;5082944;28;20235;-52
2023/05/25 04:31:14;;;;;;;12.50;7.10;;;;;;;;;;5085522;28;20598;-53
2023/05/25 04:33:41;;;;;;;9.77;7.03;;;;;;;;;;5080968;28;20238;-51
2023/05/25 04:36:09;;;;;;;8.65;7.05;;;;;;;;;;5085222;28;20667;-52
2023/05/25 04:38:36;;;;;;;11.65;6.13;;;;;;;;;;5081045;28;20239;-52
2023/05/25 04:41:02;;;;;;;13.40;7.07;;;;;;;;;;5083320;28;20230;-52
2023/05/25 04:43:29;;;;;;;11.53;8.43;;;;;;;;;;5080372;28;20310;-51
2023/05/25 04:45:56;;;;;;;9.27;6.07;;;;;;;;;;5076723;28;20230;-52
2023/05/25 04:48:24;;;;;;;11.43;6.70;;;;;;;;;;5080874;28;20218;-51
2023/05/25 04:50:51;;;;;;;9.25;7.30;;;;;;;;;;5083916;28;20270;-53
2023/05/25 04:53:18;;;;;;;8.63;6.40;;;;;;;;;;5082498;28;20234;-52
2023/05/25 04:55:44;;;;;;;6.90;6.18;;;;;;;;;;5079350;28;20596;-52
2023/05/25 04:58:12;;;;;;;8.93;7.07;;;;;;;;;;5082488;28;20353;-52
2023/05/25 05:00:38;;;;;;;7.82;6.18;;;;;;;;;;5078617;28;20872;-52
2023/05/25 05:03:05;;;;;;;12.63;6.90;;;;;;;;;;5082841;28;20231;-51
2023/05/25 05:05:33;;;;;;;9.63;7.75;;;;;;;;;;5079828;28;20281;-50
2023/05/25 05:08:02;;;;;;;9.90;7.22;;;;;;;;;;5083310;28;20240;-52
2023/05/25 05:10:28;;;;;;;9.18;7.32;;;;;;;;;;5082953;28;20234;-51
2023/05/25 05:12:55;;;;;;;14.05;7.75;;;;;;;;;;5076145;28;20241;-52
2023/05/25 05:15:21;;;;;;;9.55;7.05;;;;;;;;;;5080064;28;20313;-51
2023/05/25 05:17:47;;;;;;;10.05;8.07;;;;;;;;;;5082303;28;20253;-51
2023/05/25 05:20:14;;;;;;;21.40;8.95;;;;;;;;;;5080761;28;20230;-52
2023/05/25 05:22:42;;;;;;;11.50;7.90;;;;;;;;;;5079635;28;20618;-52
2023/05/25 05:25:09;;;;;;;8.40;7.07;;;;;;;;;;5078925;28;20264;-52
2023/05/25 05:27:35;;;;;;;11.90;7.50;;;;;;;;;;5081562;28;20235;-51
2023/05/25 05:30:02;;;;;;;12.18;8.45;;;;;;;;;;5079193;28;20234;-54
2023/05/25 05:32:28;;;;;;;16.40;9.10;;;;;;;;;;5074514;28;20787;-50
2023/05/25 05:34:55;;;;;;;10.77;7.28;;;;;;;;;;5082472;28;20317;-52
2023/05/25 05:37:21;;;;;;;12.30;8.32;;;;;;;;;;5081775;28;20222;-52
2023/05/25 05:39:51;;;;;;;16.42;8.32;;;;;;;;;;5074214;28;20241;-53
2023/05/25 05:42:17;;;;;;;10.65;7.97;;;;;;;;;;5078444;28;20226;-50
2023/05/25 05:44:43;;;;;;;13.95;8.15;;;;;;;;;;5070524;28;20235;-52
2023/05/25 05:47:10;;;;;;;8.77;7.72;;;;;;;;;;5077247;28;20986;-53
2023/05/25 05:49:38;;;;;;;13.60;7.95;;;;;;;;;;5080182;28;20313;-53
2023/05/25 05:52:05;;;;;;;15.90;9.15;;;;;;;;;;5077952;28;20313;-52
2023/05/25 05:54:31;;;;;;;10.02;7.35;;;;;;;;;;5071257;28;20231;-52
2023/05/25 05:57:00;;;;;;;11.35;8.30;;;;;;;;;;5074044;28;20322;-51
2023/05/25 05:59:26;;;;;;;14.45;8.82;;;;;;;;;;5073657;28;20759;-52
2023/05/25 06:01:53;;;;;;;17.38;8.43;;;;;;;;;;5068097;28;20329;-53
2023/05/25 06:04:19;;;;;;;10.00;7.38;;;;;;;;;;5075199;28;20697;-52
2023/05/25 06:06:45;;;;;;;10.68;7.70;;;;;;;;;;5075374;28;20309;-52
2023/05/25 06:09:12;;;;;;;11.32;7.90;;;;;;;;;;5069886;28;20234;-52
2023/05/25 06:11:38;;;;;;;11.70;6.68;;;;;;;;;;5073845;28;20234;-52
2023/05/25 06:14:06;;;;;;;8.68;6.68;;;;;;;;;;5077734;28;20237;-53
2023/05/25 06:16:33;;;;;;;12.10;9.10;;;;;;;;;;5080461;28;20593;-52
2023/05/25 06:19:00;;;;;;;12.05;8.07;;;;;;;;;;5081697;28;20234;-52
2023/05/25 06:21:26;;;;;;;14.40;9.18;;;;;;;;;;5072684;28;20292;-53
2023/05/25 06:23:52;;;;;;;14.85;9.02;;;;;;;;;;5077244;28;20761;-52
2023/05/25 06:26:19;;;;;;;15.68;10.10;;;;;;;;;;5071198;28;20643;-51
2023/05/25 06:28:46;;;;;;;12.77;8.90;;;;;;;;;;5078669;28;20258;-52
2023/05/25 06:31:14;;;;;;;17.10;8.75;;;;;;;;;;5081532;28;20396;-52
2023/05/25 06:33:40;;;;;;;11.60;5.97;;;;;;;;;;5072628;28;20635;-52
2023/05/25 06:36:07;;;;;;;8.98;7.53;;;;;;;;;;5075512;28;20226;-51
2023/05/25 06:38:33;;;;;;;17.48;9.73;;;;;;;;;;5069827;28;20675;-51
2023/05/25 06:41:02;;;;;;;12.23;8.32;;;;;;;;;;5076108;28;20237;-52
2023/05/25 06:43:28;;;;;;;14.05;8.02;;;;;;;;;;5073949;28;20237;-52
2023/05/25 06:45:55;;;;;;;12.35;7.68;;;;;;;;;;5078274;28;20234;-54
2023/05/25 06:48:22;;;;;;;10.73;7.90;;;;;;;;;;5076225;28;20230;-53
2023/05/25 06:50:49;;;;;;;11.13;7.20;;;;;;;;;;5078691;28;20734;-51
2023/05/25 06:53:16;;;;;;;14.82;8.27;;;;;;;;;;5080201;28;20231;-53
2023/05/25 06:55:43;;;;;;;14.25;8.38;;;;;;;;;;5081425;28;20322;-52
2023/05/25 06:58:10;;;;;;;14.07;8.55;;;;;;;;;;5079907;28;20321;-52
2023/05/25 07:00:36;;;;;;;9.48;8.30;;;;;;;;;;5080320;28;20230;-53
2023/05/25 07:03:03;;;;;;;17.55;9.77;;;;;;;;;;5073576;28;20249;-52
2023/05/25 07:05:30;;;;;;;14.13;8.93;;;;;;;;;;5078209;28;20238;-51
2023/05/25 07:07:57;;;;;;;16.23;7.88;;;;;;;;;;5079366;28;20230;-52
2023/05/25 07:10:23;;;;;;;14.45;7.85;;;;;;;;;;5083404;28;20225;-52
2023/05/25 07:12:50;;;;;;;11.98;7.60;;;;;;;;;;5079387;28;20226;-50
2023/05/25 07:15:16;;;;;;;11.55;8.25;;;;;;;;;;5076135;28;20234;-50
2023/05/25 07:17:42;;;;;;;11.55;7.80;;;;;;;;;;5073601;28;20708;-51
2023/05/25 07:20:11;;;;;;;12.65;8.15;;;;;;;;;;5080882;28;20727;-51
2023/05/25 07:22:39;;;;;;;13.90;7.75;;;;;;;;;;5081465;28;20330;-50
2023/05/25 07:25:06;;;;;;;14.90;7.40;;;;;;;;;;5082600;28;20716;-51
2023/05/25 07:27:32;;;;;;;11.35;6.78;;;;;;;;;;5076301;28;20237;-53
2023/05/25 07:29:58;;;;;;;11.43;5.93;;;;;;;;;;5077333;28;20776;-51
2023/05/25 07:32:25;;;;;;;12.30;6.18;;;;;;;;;;5072208;28;20238;-52
2023/05/25 07:34:51;;;;;;;13.63;6.15;;;;;;;;;;5077667;28;20306;-52
2023/05/25 07:37:18;;;;;;;10.70;6.35;;;;;;;;;;5078447;28;20236;-52
2023/05/25 07:39:45;;;;;;;10.77;6.20;;;;;;;;;;5079964;28;20674;-52
2023/05/25 07:42:12;;;;;;;10.93;6.13;;;;;;;;;;5080828;28;20245;-51
2023/05/25 07:44:38;;;;;;;8.45;4.90;;;;;;;;;;5082159;28;20341;-52
2023/05/25 07:47:05;;;;;;;5.82;4.40;;;;;;;;;;5083112;28;20719;-51
2023/05/25 07:49:31;;;;;;;6.85;3.60;;;;;;;;;;5084944;28;20250;-52
2023/05/25 07:51:58;;;;;;;10.95;4.57;;;;;;;;;;5082625;28;20711;-52
2023/05/25 07:54:24;;;;;;;10.57;5.05;;;;;;;;;;5086813;28;20235;-52
2023/05/25 07:56:52;;;;;;;9.65;4.85;;;;;;;;;;5090446;28;20230;-51
2023/05/25 07:59:18;;;;;;;7.10;4.53;;;;;;;;;;5091805;28;20323;-51
2023/05/25 08:01:45;;;;;;;14.27;4.32;;;;;;;;;;5092654;28;20309;-52
2023/05/25 08:04:11;;;;;;;11.63;4.80;;;;;;;;;;5089424;28;20243;-52
2023/05/25 08:06:38;;;;;;;8.57;5.00;;;;;;;;;;5094113;28;20235;-53
2023/05/25 08:09:05;;;;;;;12.07;5.45;;;;;;;;;;5093279;28;20774;-53
2023/05/25 08:11:31;;;;;;;6.63;4.63;;;;;;;;;;5085345;28;20242;-53
2023/05/25 08:13:59;;;;;;;9.55;3.92;;;;;;;;;;5082230;28;20740;-52
2023/05/25 08:16:25;;;;;;;6.28;4.35;;;;;;;;;;5081633;28;20226;-50
2023/05/25 08:18:52;;;;;;;10.05;4.68;;;;;;;;;;5087829;28;20350;-52
2023/05/25 08:21:18;;;;;;;7.25;4.70;;;;;;;;;;5085506;28;20241;-52
2023/05/25 08:23:44;;;;;;;8.93;4.68;;;;;;;;;;5079081;28;20238;-52
2023/05/25 08:26:11;;;;;;;8.13;5.03;;;;;;;;;;5083784;28;20307;-52
2023/05/25 08:28:38;;;;;;;10.68;4.88;;;;;;;;;;5085964;28;20234;-50
2023/05/25 08:31:06;;;;;;;5.22;3.85;;;;;;;;;;5076205;28;20717;-50
2023/05/25 08:33:33;;;;;;;8.20;5.03;;;;;;;;;;5085063;28;20257;-51
2023/05/25 08:35:59;;;;;;;8.25;5.35;;;;;;;;;;5084582;28;20258;-51
2023/05/25 08:38:26;;;;;;;10.55;4.78;;;;;;;;;;5086726;27;20732;-52
2023/05/25 08:41:00;;;;;;;7.15;4.18;;;;;;;;;;5086329;28;20322;-53
2023/05/25 08:43:27;;;;;;;8.70;4.50;;;;;;;;;;5081206;28;20288;-52
2023/05/25 08:45:54;;;;;;;9.80;5.15;;;;;;;;;;5085779;28;20234;-53
2023/05/25 08:48:23;;;;;;;8.75;5.20;;;;;;;;;;5089398;28;20316;-53
2023/05/25 08:50:50;;;;;;;7.60;4.25;;;;;;;;;;5079499;28;20244;-52
2023/05/25 08:53:17;;;;;;;7.55;3.70;;;;;;;;;;5082592;28;20237;-52
2023/05/25 08:55:45;;;;;;;6.43;4.65;;;;;;;;;;5081009;28;20231;-52
2023/05/25 08:58:15;;;;;;;9.20;5.03;;;;;;;;;;5081630;28;21028;-51
2023/05/25 09:00:44;;;;;;;6.95;4.25;;;;;;;;;;5076658;28;20309;-52
2023/05/25 09:03:11;;;;;;;9.02;4.00;;;;;;;;;;5080346;28;20234;-51
2023/05/25 09:05:39;;;;;;;7.63;4.35;;;;;;;;;;5082325;28;21034;-51
2023/05/25 09:08:06;;;;;;;6.47;3.72;;;;;;;;;;5076463;28;20321;-52
2023/05/25 09:10:34;;;;;;;7.03;4.10;;;;;;;;;;5079817;28;20230;-50
2023/05/25 09:13:01;;;;;;;6.70;3.72;;;;;;;;;;5081437;28;20238;-51
2023/05/25 09:15:27;;;;;;;8.30;4.53;;;;;;;;;;5083379;28;20282;-51
2023/05/25 09:17:54;;;;;;;7.95;4.25;;;;;;;;;;5081563;28;20230;-51
2023/05/25 09:20:21;;;;;;;8.20;4.18;;;;;;;;;;5084133;28;20234;-51
2023/05/25 09:22:48;;;;;;;7.35;4.38;;;;;;;;;;5074702;28;20253;-50
2023/05/25 09:25:17;;;;;;;5.18;4.13;;;;;;;;;;5084087;28;20234;-52
2023/05/25 09:27:45;;;;;;;7.53;4.80;;;;;;;;;;5086230;28;20329;-52
2023/05/25 09:30:11;;;;;;;6.45;4.07;;;;;;;;;;5084772;28;20313;-52
2023/05/25 09:32:38;;;;;;;9.93;5.63;;;;;;;;;;5084272;28;20230;-52
2023/05/25 09:35:08;;;;;;;9.50;4.30;;;;;;;;;;5081699;28;20779;-52
2023/05/25 09:37:35;;;;;;;7.10;4.50;;;;;;;;;;5078051;28;20233;-51
2023/05/25 09:40:03;;;;;;;7.15;4.45;;;;;;;;;;5081801;28;20234;-51
2023/05/25 09:42:30;;;;;;;10.73;4.97;;;;;;;;;;5081257;28;20256;-51
2023/05/25 09:44:57;;;;;;;8.80;4.00;;;;;;;;;;5078856;28;20241;-52
2023/05/25 09:47:24;;;;;;;5.95;3.70;;;;;;;;;;5084117;28;20242;-51
2023/05/25 09:49:50;;;;;;;5.13;3.90;;;;;;;;;;5081409;28;20226;-52
2023/05/25 09:52:17;;;;;;;7.28;4.03;;;;;;;;;;5079968;28;20317;-52
2023/05/25 09:54:44;;;;;;;5.90;3.33;;;;;;;;;;5081429;28;20244;-51
2023/05/25 09:57:11;;;;;;;6.57;3.78;;;;;;;;;;5081985;28;20262;-53
2023/05/25 09:59:38;;;;;;;5.30;3.53;;;;;;;;;;5082747;28;21082;-51
2023/05/25 10:02:05;;;;;;;7.70;4.38;;;;;;;;;;5076926;28;20237;-52
2023/05/25 10:04:32;;;;;;;8.20;5.10;;;;;;;;;;5080286;28;20238;-52
2023/05/25 10:06:59;;;;;;;10.70;5.63;;;;;;;;;;5083257;28;20309;-52
2023/05/25 10:09:28;;;;;;;7.65;4.43;;;;;;;;;;5082268;28;20238;-53
2023/05/25 10:11:56;;;;;;;8.90;4.65;;;;;;;;;;5080541;28;20329;-52
2023/05/25 10:14:26;;;;;;;8.45;3.85;;;;;;;;;;5077956;28;21031;-50
2023/05/25 10:16:53;;;;;;;12.88;7.35;;;;;;;;;;5080520;28;20309;-53
2023/05/25 10:19:22;;;;;;;10.55;6.05;;;;;;;;;;5080316;28;20227;-52
2023/05/25 10:21:51;;;;;;;6.65;4.70;;;;;;;;;;5077732;28;20356;-52
2023/05/25 10:24:24;;;;;;;6.45;4.40;;;;;;;;;;5079141;28;20222;-51
2023/05/25 10:26:53;;;;;;;6.55;5.03;;;;;;;;;;5082036;28;20226;-52
2023/05/25 10:29:20;;;;;;;6.85;4.50;;;;;;;;;;5078446;28;20222;-53
2023/05/25 10:31:48;;;;;;;5.00;3.78;;;;;;;;;;5080237;28;20797;-52
2023/05/25 10:34:15;;;;;;;9.30;4.07;;;;;;;;;;5084380;28;20250;-52
2023/05/25 10:36:42;;;;;;;10.07;5.20;;;;;;;;;;5076678;28;20238;-52
2023/05/25 10:39:09;;;;;;;7.10;4.18;;;;;;;;;;5076795;28;20246;-53
2023/05/25 10:41:35;;;;;;;4.53;4.05;;;;;;;;;;5080263;28;20371;-51
2023/05/25 10:44:02;;;;;;;9.60;4.85;;;;;;;;;;5083459;28;20469;-52
2023/05/25 10:46:29;;;;;;;6.28;4.10;;;;;;;;;;5080497;28;20254;-51
2023/05/25 10:49:01;;;;;;;9.27;4.57;;;;;;;;;;5076068;28;20223;-52
2023/05/25 10:51:36;;;;;;;7.18;4.40;;;;;;;;;;5081176;28;20647;-52
2023/05/25 10:54:03;;;;;;;7.50;4.88;;;;;;;;;;5076504;28;20234;-51
2023/05/25 10:56:29;;;;;;;7.97;4.85;;;;;;;;;;5076048;28;20230;-51
2023/05/25 10:58:55;;;;;;;8.55;4.97;;;;;;;;;;5079872;28;20718;-51
2023/05/25 11:01:22;;;;;;;5.63;4.07;;;;;;;;;;5079359;28;20228;-53
2023/05/25 11:03:55;;;;;;;10.52;5.15;;;;;;;;;;5082835;28;20246;-53
2023/05/25 11:06:23;;;;;;;9.50;5.53;;;;;;;;;;5085982;28;20230;-53
2023/05/25 11:08:50;;;;;;;9.50;5.03;;;;;;;;;;5074839;28;20226;-51
2023/05/25 11:11:17;;;;;;;7.28;4.90;;;;;;;;;;5080680;28;20709;-52
2023/05/25 11:13:44;;;;;;;10.13;4.65;;;;;;;;;;5075526;28;20265;-51
2023/05/25 11:16:16;;;;;;;8.70;4.45;;;;;;;;;;5082498;28;20310;-53
2023/05/25 11:18:44;;;;;;;9.82;4.43;;;;;;;;;;5083127;28;20230;-56
2023/05/25 11:21:11;;;;;;;6.75;3.97;;;;;;;;;;5085945;28;20241;-51
2023/05/25 11:23:51;;;;;;;7.38;4.75;;;;;;;;;;5085058;28;20241;-53
2023/05/25 11:26:21;;;;;;;9.07;5.18;;;;;;;;;;5079347;28;20776;-52
2023/05/25 11:28:47;;;;;;;11.23;4.97;;;;;;;;;;5081534;28;20659;-53
2023/05/25 11:31:14;;;;;;;10.43;4.32;;;;;;;;;;5085077;28;20255;-52
2023/05/25 11:33:43;;;;;;;5.20;4.45;;;;;;;;;;5080969;28;20735;-52
2023/05/25 11:36:11;;;;;;;6.45;4.03;;;;;;;;;;5084146;28;20234;-51
2023/05/25 11:38:44;;;;;;;7.25;4.03;;;;;;;;;;5084297;28;20600;-55
2023/05/25 11:41:15;;;;;;;10.10;5.43;;;;;;;;;;5083128;28;20235;-53
2023/05/25 11:43:42;;;;;;;6.60;4.40;;;;;;;;;;5078628;28;20321;-52
2023/05/25 11:46:09;;;;;;;8.95;5.00;;;;;;;;;;5078550;28;20264;-51
2023/05/25 11:48:35;;;;;;;11.98;5.28;;;;;;;;;;5082775;28;20243;-52
2023/05/25 11:51:05;;;;;;;12.68;6.00;;;;;;;;;;5082778;28;20597;-53
2023/05/25 11:53:32;;;;;;;18.30;7.20;;;;;;;;;;5082163;28;20848;-52
2023/05/25 11:55:59;;;;;;;13.15;5.63;;;;;;;;;;5090276;28;21027;-52
2023/05/25 11:58:26;;;;;;;20.73;7.05;;;;;;;;;;5083283;28;20237;-51
2023/05/25 12:00:52;;;;;;;8.52;4.60;;;;;;;;;;5080477;28;20335;-52
2023/05/25 12:03:31;;;;;;;8.02;4.93;;;;;;;;;;5084241;28;20686;-52
2023/05/25 12:05:57;;;;;;;6.65;5.07;;;;;;;;;;5079507;28;20238;-52
2023/05/25 12:08:31;;;;;;;7.78;5.13;;;;;;;;;;5084574;28;20237;-52
2023/05/25 12:10:58;;;;;;;11.18;6.28;;;;;;;;;;5087332;28;20238;-52
2023/05/25 12:13:26;;;;;;;13.70;6.85;;;;;;;;;;5082586;28;20226;-52
2023/05/25 12:15:52;;;;;;;7.85;5.30;;;;;;;;;;5082244;28;20226;-53
2023/05/25 12:18:19;;;;;;;9.52;5.78;;;;;;;;;;5083157;28;20313;-54
2023/05/25 12:20:45;;;;;;;10.38;5.57;;;;;;;;;;5078964;28;20720;-53
2023/05/25 12:23:12;;;;;;;8.00;5.22;;;;;;;;;;5081359;28;20250;-52
2023/05/25 12:25:38;;;;;;;8.98;5.50;;;;;;;;;;5077723;28;20245;-55
2023/05/25 12:28:11;;;;;;;11.20;5.13;;;;;;;;;;5081510;28;20264;-52
2023/05/25 12:30:39;;;;;;;12.00;5.72;;;;;;;;;;5084458;28;20237;-53
2023/05/25 12:33:05;;;;;;;12.43;5.43;;;;;;;;;;5080721;28;20727;-51
2023/05/25 12:35:43;;;;;;;7.68;4.85;;;;;;;;;;5080091;28;20289;-52
2023/05/25 12:38:10;;;;;;;6.55;4.78;;;;;;;;;;5083604;28;20227;-51
2023/05/25 12:40:37;;;;;;;9.13;5.30;;;;;;;;;;5081650;28;20235;-51
2023/05/25 12:43:03;;;;;;;7.57;5.82;;;;;;;;;;5083659;28;20226;-53
2023/05/25 12:45:30;;;;;;;9.70;4.97;;;;;;;;;;5072424;28;20775;-53
2023/05/25 12:47:58;;;;;;;9.23;4.72;;;;;;;;;;5082405;28;20246;-51
2023/05/25 12:50:24;;;;;;;7.80;4.95;;;;;;;;;;5080454;28;20276;-52
2023/05/25 12:52:51;;;;;;;10.63;4.72;;;;;;;;;;5078628;28;20317;-52
2023/05/25 12:55:27;;;;;;;10.82;4.60;;;;;;;;;;5074507;28;20226;-51
2023/05/25 12:57:54;;;;;;;8.15;5.60;;;;;;;;;;5080656;28;20280;-56
2023/05/25 13:00:22;;;;;;;7.05;4.80;;;;;;;;;;5082998;28;20600;-51
2023/05/25 13:02:48;;;;;;;9.25;5.05;;;;;;;;;;5080812;28;20266;-52
2023/05/25 13:05:20;;;;;;;8.95;5.18;;;;;;;;;;5083039;28;20232;-52
2023/05/25 13:07:47;;;;;;;5.55;4.47;;;;;;;;;;5082945;28;20230;-51
2023/05/25 13:10:16;;;;;;;11.68;4.53;;;;;;;;;;5082230;28;20318;-52
2023/05/25 13:12:42;;;;;;;10.07;5.22;;;;;;;;;;5078793;28;20245;-54
2023/05/25 13:15:09;;;;;;;8.68;5.68;;;;;;;;;;5082541;28;20233;-52
2023/05/25 13:17:36;;;;;;;5.00;3.83;;;;;;;;;;5081069;28;20234;-52
2023/05/25 13:20:03;;;;;;;9.68;4.60;;;;;;;;;;5076344;28;20246;-52
2023/05/25 13:22:31;;;;;;;6.20;4.70;;;;;;;;;;5077298;28;20299;-52
2023/05/25 13:24:57;;;;;;;9.70;5.13;;;;;;;;;;5076728;28;20230;-52
2023/05/25 13:27:24;;;;;;;7.07;4.78;;;;;;;;;;5078321;28;20330;-51
2023/05/25 13:29:50;;;;;;;6.63;4.78;;;;;;;;;;5079050;28;20748;-53
2023/05/25 13:32:17;;;;;;;11.20;5.07;;;;;;;;;;5085549;28;20258;-52
2023/05/25 13:34:44;;;;;;;6.40;3.70;;;;;;;;;;5074976;28;20237;-51
2023/05/25 13:37:11;;;;;;;6.50;3.90;;;;;;;;;;5073665;28;20226;-52
2023/05/25 13:39:38;;;;;;;10.57;4.05;;;;;;;;;;5078475;28;20244;-52
2023/05/25 13:42:06;;;;;;;6.45;4.40;;;;;;;;;;5082599;28;20237;-53
2023/05/25 13:44:32;;;;;;;5.97;3.50;;;;;;;;;;5081447;28;20245;-51
2023/05/25 13:46:59;;;;;;;7.57;4.57;;;;;;;;;;5075875;28;21241;-51
2023/05/25 13:49:25;;;;;;;8.43;5.20;;;;;;;;;;5081948;28;20611;-56
2023/05/25 13:51:51;;;;;;;9.20;4.90;;;;;;;;;;5081762;28;20306;-52
2023/05/25 13:54:18;;;;;;;8.00;4.88;;;;;;;;;;5082685;28;20226;-51
2023/05/25 13:56:46;;;;;;;6.88;3.35;;;;;;;;;;5083149;28;20241;-53
2023/05/25 13:59:12;;;;;;;5.32;3.88;;;;;;;;;;5090671;28;20322;-55
2023/05/25 14:01:39;;;;;;;7.30;4.03;;;;;;;;;;5091592;28;20258;-52
2023/05/25 14:04:05;;;;;;;10.13;4.88;;;;;;;;;;5086921;28;20828;-52
2023/05/25 14:06:33;;;;;;;6.93;4.20;;;;;;;;;;5095443;28;20288;-51
2023/05/25 14:09:00;;;;;;;7.95;5.35;;;;;;;;;;5079376;28;20239;-55
2023/05/25 14:11:26;;;;;;;9.45;4.72;;;;;;;;;;5084017;28;20249;-52
2023/05/25 14:13:54;;;;;;;5.80;4.38;;;;;;;;;;5077131;28;20284;-51
2023/05/25 14:16:21;;;;;;;9.95;5.07;;;;;;;;;;5080583;28;20394;-53
2023/05/25 14:18:47;;;;;;;7.22;4.43;;;;;;;;;;5079444;28;20999;-52
2023/05/25 14:21:14;;;;;;;6.82;4.32;;;;;;;;;;5081209;28;20234;-56
2023/05/25 14:23:41;;;;;;;6.45;5.28;;;;;;;;;;5075725;28;20258;-52
2023/05/25 14:26:08;;;;;;;9.13;4.57;;;;;;;;;;5078357;28;20230;-56
2023/05/25 14:28:34;;;;;;;6.75;4.05;;;;;;;;;;5077593;28;20226;-60
2023/05/25 14:31:02;;;;;;;8.85;4.57;;;;;;;;;;5082955;28;20272;-51
2023/05/25 14:33:28;;;;;;;4.43;4.03;;;;;;;;;;5088068;28;20229;-52
2023/05/25 14:35:56;;;;;;;6.28;3.72;;;;;;;;;;5082666;28;20874;-51
2023/05/25 14:38:22;;;;;;;4.60;3.20;;;;;;;;;;5084124;28;20257;-52